Time;durP1;ratioP1;P1;durP2;ratioP2;P2;SDS_P1;SDS_P2;PMS_P1;PMS_P2;Temp;Humidity;BMP_temperature;BMP_pressure;BME280_temperature;BME280_humidity;BME280_pressure;Samples;Min_cycle;Max_cycle;Signal;HPM_P1;HPM_P2
2022/05/27 00:02:03;;;;;;;2.17;1.83;;;;;16.90;101327.00;;;;5016663;28;20230;-72
2022/05/27 00:04:51;;;;;;;3.87;1.93;;;;;16.90;101336.00;;;;5025873;28;20229;-73
2022/05/27 00:07:37;;;;;;;1.83;1.73;;;;;16.90;101319.00;;;;5027985;28;20238;-73
2022/05/27 00:10:23;;;;;;;4.87;2.50;;;;;16.90;101325.00;;;;5018749;28;20349;-74
2022/05/27 00:13:10;;;;;;;4.10;2.00;;;;;16.80;101326.00;;;;5023054;28;20397;-73
2022/05/27 00:15:56;;;;;;;1.90;1.70;;;;;16.80;101315.00;;;;5020786;28;20718;-73
2022/05/27 00:18:43;;;;;;;4.77;1.90;;;;;16.80;101324.00;;;;5027711;28;20615;-72
2022/05/27 00:21:30;;;;;;;3.17;1.93;;;;;16.90;101317.00;;;;5027912;28;20233;-71
2022/05/27 00:24:17;;;;;;;5.90;2.40;;;;;16.90;101316.00;;;;5028190;28;20797;-72
2022/05/27 00:27:04;;;;;;;4.67;2.20;;;;;16.80;101320.00;;;;5021670;28;20229;-73
2022/05/27 00:29:50;;;;;;;3.40;2.20;;;;;16.80;101312.00;;;;5027763;28;20584;-73
2022/05/27 00:32:47;;;;;;;2.90;2.00;;;;;16.70;101319.00;;;;5028210;28;20237;-73
2022/05/27 00:35:33;;;;;;;2.70;2.13;;;;;16.80;101312.00;;;;5026854;28;20595;-73
2022/05/27 00:38:21;;;;;;;3.03;2.30;;;;;16.70;101325.00;;;;5013719;28;20237;-72
2022/05/27 00:41:09;;;;;;;4.03;2.40;;;;;16.70;101313.00;;;;5003620;28;20224;-73
2022/05/27 00:43:55;;;;;;;3.53;2.50;;;;;16.60;101315.00;;;;5019843;28;20579;-73
2022/05/27 00:46:44;;;;;;;3.13;2.30;;;;;16.60;101312.00;;;;5025059;28;20229;-73
2022/05/27 00:49:32;;;;;;;3.87;3.10;;;;;16.50;101318.00;;;;5007447;28;20234;-73
2022/05/27 00:52:21;;;;;;;4.43;2.40;;;;;16.60;101311.00;;;;5008229;28;20237;-73
2022/05/27 00:55:14;;;;;;;4.57;2.47;;;;;16.50;101321.00;;;;5007516;28;20373;-72
2022/05/27 00:58:09;;;;;;;3.50;2.70;;;;;16.50;101310.00;;;;5007652;28;20245;-73
2022/05/27 01:00:56;;;;;;;8.30;3.00;;;;;16.50;101317.00;;;;5007544;28;20256;-74
2022/05/27 01:03:44;;;;;;;3.27;2.70;;;;;16.30;101319.00;;;;5007137;28;20245;-73
2022/05/27 01:06:30;;;;;;;3.87;2.67;;;;;16.30;101307.00;;;;5007324;28;20240;-73
2022/05/27 01:09:17;;;;;;;3.63;3.10;;;;;16.30;101301.00;;;;5001445;28;20244;-73
2022/05/27 01:12:43;;;;;;;4.90;3.40;;;;;16.20;101305.00;;;;4998905;28;20238;-73
2022/05/27 01:15:39;;;;;;;5.73;3.07;;;;;16.20;101306.00;;;;5015357;28;20327;-73
2022/05/27 01:21:50;;;;;;;4.70;3.10;;;;;16.10;101304.00;;;;4999683;28;20246;-74
2022/05/27 01:24:56;;;;;;;3.67;3.23;;;;;16.20;101303.00;;;;5015274;28;20676;-73
2022/05/27 01:28:20;;;;;;;3.40;2.87;;;;;16.10;101297.00;;;;5015642;28;20301;-71
2022/05/27 01:31:25;;;;;;;5.43;3.40;;;;;16.00;101294.00;;;;5015445;28;20725;-73
2022/05/27 01:34:20;;;;;;;6.20;3.50;;;;;16.10;101293.00;;;;4996036;28;20226;-72
2022/05/27 01:37:10;;;;;;;8.03;3.67;;;;;16.10;101283.00;;;;5015970;28;20281;-70
2022/05/27 01:40:07;;;;;;;5.67;3.00;;;;;16.00;101294.00;;;;5019897;28;20259;-72
2022/05/27 01:43:00;;;;;;;5.17;3.33;;;;;16.10;101286.00;;;;5015233;28;20254;-73
2022/05/27 01:45:52;;;;;;;6.20;3.17;;;;;15.90;101277.00;;;;5017553;28;20241;-73
2022/05/27 01:48:58;;;;;;;4.23;3.23;;;;;15.90;101279.00;;;;5013246;28;20262;-72
2022/05/27 01:51:49;;;;;;;5.67;3.50;;;;;16.00;101282.00;;;;5015059;28;20754;-72
2022/05/27 01:54:43;;;;;;;5.20;3.27;;;;;16.00;101283.00;;;;5016626;28;20232;-73
2022/05/27 01:57:34;;;;;;;5.40;3.50;;;;;16.00;101279.00;;;;5022413;28;20306;-74
2022/05/27 02:00:24;;;;;;;4.13;3.13;;;;;16.00;101273.00;;;;5026185;28;20788;-72
2022/05/27 02:03:14;;;;;;;4.73;3.13;;;;;15.90;101293.00;;;;5022711;28;20372;-73
2022/05/27 02:06:06;;;;;;;4.67;3.37;;;;;15.90;101285.00;;;;5025942;28;20322;-73
2022/05/27 02:08:58;;;;;;;3.97;3.40;;;;;15.90;101285.00;;;;5017089;28;20296;-73
2022/05/27 02:11:48;;;;;;;6.83;3.63;;;;;15.90;101273.00;;;;5005919;28;20246;-73
2022/05/27 02:14:42;;;;;;;5.17;3.63;;;;;15.90;101286.00;;;;5005836;28;20287;-73
2022/05/27 02:17:32;;;;;;;6.67;3.83;;;;;15.80;101292.00;;;;5005346;28;20238;-73
2022/05/27 02:20:25;;;;;;;5.40;3.87;;;;;15.70;101291.00;;;;5006772;28;20236;-72
2022/05/27 02:23:21;;;;;;;5.53;3.40;;;;;15.70;101289.00;;;;5018306;28;20235;-73
2022/05/27 02:26:13;;;;;;;6.17;3.73;;;;;15.70;101301.00;;;;5019397;28;20591;-73
2022/05/27 02:29:02;;;;;;;6.80;3.57;;;;;15.70;101323.00;;;;4998751;28;20283;-72
2022/05/27 02:31:55;;;;;;;6.37;3.00;;;;;15.60;101326.00;;;;5006110;28;20242;-73
2022/05/27 02:37:54;;;;;;;4.67;2.87;;;;;15.50;101328.00;;;;5012655;28;20354;-72
2022/05/27 02:40:50;;;;;;;5.07;3.40;;;;;15.50;101325.00;;;;5005706;28;20246;-72
2022/05/27 02:43:50;;;;;;;6.33;3.40;;;;;15.50;101331.00;;;;4997617;28;20609;-72
2022/05/27 02:46:48;;;;;;;7.30;3.57;;;;;15.50;101332.00;;;;4996984;28;20731;-72
2022/05/27 02:49:43;;;;;;;4.83;2.93;;;;;15.30;101328.00;;;;5016093;28;20231;-72
2022/05/27 02:52:37;;;;;;;3.93;2.50;;;;;15.30;101331.00;;;;4997348;28;20378;-73
2022/05/27 02:55:29;;;;;;;2.87;2.30;;;;;15.30;101332.00;;;;5016808;28;20238;-73
2022/05/27 02:58:17;;;;;;;3.90;2.57;;;;;15.20;101337.00;;;;5021999;28;20335;-72
2022/05/27 03:01:04;;;;;;;2.83;2.40;;;;;15.20;101347.00;;;;5025503;28;20227;-72
2022/05/27 03:03:51;;;;;;;3.30;2.47;;;;;15.20;101331.00;;;;5021375;28;20227;-73
2022/05/27 03:06:47;;;;;;;3.60;2.00;;;;;15.20;101322.00;;;;5024495;28;20237;-72
2022/05/27 03:09:44;;;;;;;3.13;2.07;;;;;15.10;101321.00;;;;5010787;28;20232;-72
2022/05/27 03:12:44;;;;;;;3.07;2.33;;;;;15.10;101327.00;;;;5025635;28;20308;-72
2022/05/27 03:15:38;;;;;;;3.67;2.00;;;;;15.10;101319.00;;;;5016530;28;20248;-73
2022/05/27 03:18:37;;;;;;;4.00;2.43;;;;;15.10;101322.00;;;;5021084;28;20234;-70
2022/05/27 03:21:32;;;;;;;3.40;2.30;;;;;15.10;101334.00;;;;5025549;28;20723;-72
2022/05/27 03:24:22;;;;;;;4.33;2.20;;;;;15.10;101320.00;;;;5018243;28;20263;-72
2022/05/27 03:27:18;;;;;;;2.50;1.97;;;;;15.00;101318.00;;;;5023171;28;20882;-72
2022/05/27 03:30:08;;;;;;;5.63;2.60;;;;;14.90;101316.00;;;;5024583;28;20230;-73
2022/05/27 03:33:03;;;;;;;3.90;1.93;;;;;15.00;101308.00;;;;5021249;28;20235;-73
2022/05/27 03:35:54;;;;;;;2.80;2.47;;;;;15.00;101315.00;;;;5017754;28;20277;-73
2022/05/27 03:38:46;;;;;;;4.70;2.00;;;;;14.90;101317.00;;;;5028817;28;20248;-73
2022/05/27 03:41:38;;;;;;;3.43;2.00;;;;;14.90;101319.00;;;;5028511;28;20230;-73
2022/05/27 03:44:26;;;;;;;4.53;2.70;;;;;15.00;101322.00;;;;5028573;28;20303;-74
2022/05/27 03:47:14;;;;;;;4.63;2.40;;;;;15.00;101320.00;;;;5010409;28;20301;-73
2022/05/27 03:50:02;;;;;;;4.30;2.20;;;;;15.00;101315.00;;;;5001709;28;20233;-73
2022/05/27 03:52:51;;;;;;;3.07;2.27;;;;;15.00;101312.00;;;;5008883;28;20243;-73
2022/05/27 03:55:43;;;;;;;1.90;1.80;;;;;15.00;101314.00;;;;5025468;28;20781;-73
2022/05/27 03:58:29;;;;;;;4.47;2.13;;;;;14.90;101310.00;;;;5006398;28;21052;-73
2022/05/27 04:01:15;;;;;;;2.43;2.23;;;;;14.90;101308.00;;;;5009721;28;20245;-73
2022/05/27 04:04:05;;;;;;;4.67;2.40;;;;;14.90;101309.00;;;;4999710;28;20766;-73
2022/05/27 04:06:53;;;;;;;3.40;2.23;;;;;14.80;101310.00;;;;5008640;28;20945;-73
2022/05/27 04:09:39;;;;;;;4.50;2.73;;;;;14.90;101322.00;;;;5012453;28;20234;-72
2022/05/27 04:12:25;;;;;;;3.93;2.40;;;;;14.80;101309.00;;;;5008637;28;20248;-73
2022/05/27 04:15:11;;;;;;;4.27;2.60;;;;;14.90;101306.00;;;;5008520;28;20742;-73
2022/05/27 04:17:58;;;;;;;3.27;2.57;;;;;14.90;101320.00;;;;5012780;28;20581;-73
2022/05/27 04:20:44;;;;;;;3.07;2.33;;;;;15.00;101313.00;;;;5027817;28;20232;-73
2022/05/27 04:23:32;;;;;;;3.20;2.50;;;;;15.10;101314.00;;;;5008074;28;20226;-73
2022/05/27 04:26:19;;;;;;;4.70;2.67;;;;;15.10;101309.00;;;;5008496;28;20326;-73
2022/05/27 04:29:05;;;;;;;5.73;2.60;;;;;15.10;101310.00;;;;5026666;28;20324;-73
2022/05/27 04:31:51;;;;;;;3.70;2.57;;;;;15.00;101310.00;;;;5028023;28;20718;-72
2022/05/27 04:34:41;;;;;;;7.53;2.67;;;;;15.00;101306.00;;;;5027729;28;20698;-73
2022/05/27 04:37:28;;;;;;;5.13;2.73;;;;;15.10;101319.00;;;;5027765;28;20737;-72
2022/05/27 04:40:16;;;;;;;3.07;2.60;;;;;15.10;101324.00;;;;5022523;28;20254;-72
2022/05/27 04:43:02;;;;;;;3.47;2.70;;;;;15.10;101321.00;;;;5020721;28;20224;-72
2022/05/27 04:45:49;;;;;;;3.60;2.57;;;;;15.10;101321.00;;;;5027947;28;20646;-72
2022/05/27 04:48:35;;;;;;;4.47;3.00;;;;;15.20;101314.00;;;;5027264;28;20624;-72
2022/05/27 04:51:22;;;;;;;3.77;2.60;;;;;15.10;101323.00;;;;5020958;28;20361;-72
2022/05/27 04:54:08;;;;;;;3.47;2.60;;;;;15.10;101316.00;;;;5021375;28;20773;-73
2022/05/27 04:56:58;;;;;;;4.20;2.73;;;;;15.10;101309.00;;;;5019589;28;20238;-74
2022/05/27 04:59:46;;;;;;;5.33;2.80;;;;;15.20;101316.00;;;;5027276;28;21147;-73
2022/05/27 05:02:32;;;;;;;3.47;2.50;;;;;15.30;101308.00;;;;5025981;28;20231;-72
2022/05/27 05:05:27;;;;;;;3.17;2.53;;;;;15.20;101319.00;;;;5027195;28;20233;-71
2022/05/27 05:08:24;;;;;;;3.10;2.60;;;;;15.20;101323.00;;;;5018721;28;20238;-73
2022/05/27 05:11:11;;;;;;;3.40;2.63;;;;;15.20;101328.00;;;;5002450;28;20240;-72
2022/05/27 05:13:58;;;;;;;4.93;2.70;;;;;15.10;101334.00;;;;5016142;28;20236;-72
2022/05/27 05:16:44;;;;;;;3.27;2.60;;;;;15.10;101325.00;;;;5026787;28;20240;-72
2022/05/27 05:19:31;;;;;;;4.13;2.80;;;;;15.10;101329.00;;;;5026640;28;20253;-73
2022/05/27 05:22:17;;;;;;;3.87;2.57;;;;;15.30;101319.00;;;;5007704;28;20233;-74
2022/05/27 05:25:04;;;;;;;6.03;3.17;;;;;15.30;101322.00;;;;5018285;28;20229;-72
2022/05/27 05:27:50;;;;;;;4.77;2.90;;;;;15.60;101334.00;;;;5025941;28;20636;-72
2022/05/27 05:30:38;;;;;;;4.17;2.90;;;;;15.60;101334.00;;;;5026937;28;20231;-72
2022/05/27 05:33:24;;;;;;;3.70;2.77;;;;;15.60;101337.00;;;;5009600;28;20245;-72
2022/05/27 05:36:11;;;;;;;4.40;2.97;;;;;15.70;101336.00;;;;5001574;28;20241;-73
2022/05/27 05:38:58;;;;;;;8.17;4.23;;;;;15.80;101338.00;;;;4999456;28;20234;-73
2022/05/27 05:41:57;;;;;;;4.30;3.07;;;;;15.90;101341.00;;;;5026404;28;20788;-73
2022/05/27 05:44:43;;;;;;;3.93;2.77;;;;;15.80;101331.00;;;;5026034;28;20225;-73
2022/05/27 05:47:30;;;;;;;4.70;3.10;;;;;15.90;101336.00;;;;5001144;28;20733;-72
2022/05/27 05:50:17;;;;;;;3.97;2.83;;;;;16.00;101345.00;;;;5007260;28;20713;-73
2022/05/27 05:53:04;;;;;;;5.30;3.03;;;;;16.10;101348.00;;;;5018629;28;20291;-73
2022/05/27 05:55:51;;;;;;;6.00;3.13;;;;;16.10;101343.00;;;;5026665;28;20244;-74
2022/05/27 05:58:37;;;;;;;5.03;3.23;;;;;16.20;101340.00;;;;5026279;28;20238;-73
2022/05/27 06:01:24;;;;;;;8.10;3.13;;;;;16.10;101344.00;;;;5018592;28;20399;-72
2022/05/27 06:04:12;;;;;;;6.40;3.20;;;;;16.20;101342.00;;;;5021137;28;20243;-73
2022/05/27 06:06:59;;;;;;;6.07;3.27;;;;;16.30;101340.00;;;;5018347;28;20223;-73
2022/05/27 06:09:45;;;;;;;4.40;3.20;;;;;16.20;101337.00;;;;5014508;28;20232;-72
2022/05/27 06:12:33;;;;;;;5.53;3.27;;;;;16.20;101342.00;;;;5004686;28;20276;-73
2022/05/27 06:15:20;;;;;;;3.67;3.33;;;;;16.30;101344.00;;;;5001996;28;20266;-72
2022/05/27 06:18:07;;;;;;;4.40;3.13;;;;;16.20;101337.00;;;;5005178;28;20230;-74
2022/05/27 06:20:55;;;;;;;5.43;2.97;;;;;16.30;101355.00;;;;4998386;28;20234;-74
2022/05/27 06:23:41;;;;;;;3.83;3.10;;;;;16.40;101352.00;;;;4993464;28;20254;-73
2022/05/27 06:26:27;;;;;;;3.60;2.93;;;;;16.40;101355.00;;;;4995392;28;20246;-73
2022/05/27 06:35:22;;;;;;;8.13;3.43;;;;;16.50;101371.00;;;;5014030;28;20240;-71
2022/05/27 06:38:10;;;;;;;3.20;2.87;;;;;16.40;101373.00;;;;5020261;28;20230;-73
2022/05/27 06:40:56;;;;;;;5.73;2.90;;;;;16.50;101365.00;;;;5017878;28;20229;-70
2022/05/27 06:43:42;;;;;;;6.70;2.80;;;;;16.60;101371.00;;;;5010636;28;20261;-72
2022/05/27 06:46:29;;;;;;;6.00;2.50;;;;;16.70;101375.00;;;;5015685;28;20322;-73
2022/05/27 06:49:17;;;;;;;3.30;2.63;;;;;16.80;101365.00;;;;5013650;28;20603;-72
2022/05/27 06:52:04;;;;;;;4.63;2.87;;;;;16.90;101360.00;;;;5020558;28;20753;-72
2022/05/27 06:54:52;;;;;;;5.87;2.93;;;;;16.80;101341.00;;;;5013012;28;20271;-72
2022/05/27 06:57:39;;;;;;;3.70;2.40;;;;;17.00;101361.00;;;;5023193;28;20606;-74
2022/05/27 07:00:26;;;;;;;3.67;2.50;;;;;17.00;101373.00;;;;5025652;28;20303;-74
2022/05/27 07:03:12;;;;;;;6.17;2.33;;;;;17.20;101368.00;;;;5018554;28;20368;-74
2022/05/27 07:05:59;;;;;;;4.40;2.40;;;;;17.20;101357.00;;;;5017791;28;20289;-75
2022/05/27 07:08:45;;;;;;;4.37;2.30;;;;;17.10;101365.00;;;;5022056;28;20917;-74
2022/05/27 07:11:33;;;;;;;2.93;1.80;;;;;17.30;101372.00;;;;5018463;28;20229;-74
2022/05/27 07:14:20;;;;;;;2.93;1.80;;;;;17.20;101364.00;;;;5023319;28;20312;-75
2022/05/27 07:17:07;;;;;;;3.40;1.90;;;;;17.20;101382.00;;;;5023994;28;20229;-74
2022/05/27 07:19:56;;;;;;;6.30;1.90;;;;;17.20;101381.00;;;;5012693;28;20299;-73
2022/05/27 07:22:43;;;;;;;5.87;2.70;;;;;17.20;101381.00;;;;5023345;28;20234;-73
2022/05/27 07:25:31;;;;;;;4.97;2.30;;;;;17.20;101379.00;;;;5023466;28;20286;-74
2022/05/27 07:28:25;;;;;;;6.03;1.87;;;;;17.00;101384.00;;;;5024660;28;20722;-75
2022/05/27 07:31:11;;;;;;;5.77;1.80;;;;;17.00;101379.00;;;;5018757;28;20245;-73
2022/05/27 07:33:58;;;;;;;5.73;2.50;;;;;17.10;101382.00;;;;5025019;28;20248;-74
2022/05/27 07:36:44;;;;;;;5.13;3.00;;;;;17.20;101371.00;;;;5024952;28;20304;-73
2022/05/27 07:39:31;;;;;;;4.67;2.20;;;;;17.10;101339.00;;;;5025076;28;20233;-75
2022/05/27 07:42:17;;;;;;;7.60;1.73;;;;;17.10;101389.00;;;;5025774;28;20232;-74
2022/05/27 07:45:06;;;;;;;2.13;1.50;;;;;17.00;101371.00;;;;5025401;28;20226;-74
2022/05/27 07:47:52;;;;;;;3.20;1.67;;;;;17.10;101384.00;;;;5024877;28;20304;-74
2022/05/27 07:50:41;;;;;;;4.43;2.03;;;;;17.30;101368.00;;;;5024454;28;20614;-73
2022/05/27 07:53:27;;;;;;;2.03;1.83;;;;;17.30;101386.00;;;;5021244;28;20229;-73
2022/05/27 07:56:14;;;;;;;5.17;1.67;;;;;17.40;101378.00;;;;5026089;28;20233;-73
2022/05/27 07:59:00;;;;;;;5.23;1.77;;;;;17.50;101369.00;;;;5015888;28;20233;-73
2022/05/27 08:01:48;;;;;;;6.53;2.63;;;;;17.60;101379.00;;;;5009079;28;20236;-74
2022/05/27 08:04:34;;;;;;;11.33;2.50;;;;;17.40;101380.00;;;;5008261;28;20385;-73
2022/05/27 08:07:21;;;;;;;7.40;2.30;;;;;17.30;101372.00;;;;5009329;28;20296;-73
2022/05/27 08:10:09;;;;;;;5.67;2.30;;;;;17.50;101361.00;;;;5003045;28;20735;-74
2022/05/27 08:12:55;;;;;;;8.03;2.70;;;;;17.30;101365.00;;;;5027932;28;20337;-74
2022/05/27 08:15:42;;;;;;;6.17;2.40;;;;;17.40;101371.00;;;;5027864;28;21049;-74
2022/05/27 08:18:30;;;;;;;6.17;2.67;;;;;17.30;101380.00;;;;5028127;28;20292;-74
2022/05/27 08:21:16;;;;;;;5.57;2.50;;;;;17.30;101385.00;;;;5028416;28;20304;-75
2022/05/27 08:24:03;;;;;;;4.73;2.43;;;;;17.30;101379.00;;;;5001386;28;20467;-75
2022/05/27 08:26:49;;;;;;;5.50;2.40;;;;;17.40;101377.00;;;;5008605;28;20241;-75
2022/05/27 08:29:35;;;;;;;3.97;2.33;;;;;17.40;101384.00;;;;5027777;28;20240;-75
2022/05/27 08:32:22;;;;;;;3.80;2.20;;;;;17.50;101377.00;;;;5017190;28;20222;-73
2022/05/27 08:38:19;;;;;;;5.23;2.10;;;;;17.60;101390.00;;;;5012336;28;20721;-74
2022/05/27 08:41:29;;;;;;;5.10;2.57;;;;;17.70;101385.00;;;;5016945;28;20287;-73
2022/05/27 08:44:25;;;;;;;7.53;2.23;;;;;18.10;101386.00;;;;5020628;28;20333;-74
2022/05/27 08:47:22;;;;;;;6.77;2.13;;;;;18.50;101383.00;;;;5021802;28;20232;-74
2022/05/27 08:50:16;;;;;;;5.83;1.93;;;;;18.90;101388.00;;;;5023627;28;20226;-75
2022/05/27 08:53:10;;;;;;;6.27;2.30;;;;;18.90;101390.00;;;;5016769;28;20297;-75
2022/05/27 08:59:27;;;;;;;4.90;2.30;;;;;18.20;101393.00;;;;5026791;28;20237;-75
2022/05/27 09:02:26;;;;;;;3.83;2.10;;;;;18.00;101414.00;;;;5021814;28;20606;-76
2022/05/27 09:05:18;;;;;;;4.87;2.20;;;;;18.10;101394.00;;;;5021290;28;20726;-76
2022/05/27 09:08:09;;;;;;;4.33;1.87;;;;;18.20;101410.00;;;;5017731;28;20229;-75
2022/05/27 09:11:00;;;;;;;4.83;1.93;;;;;18.60;101398.00;;;;5010024;28;20238;-75
2022/05/27 09:13:56;;;;;;;2.93;2.17;;;;;18.50;101402.00;;;;5007376;28;20273;-75
2022/05/27 09:16:54;;;;;;;7.53;2.47;;;;;19.00;101410.00;;;;5007088;28;20324;-72
2022/05/27 09:20:03;;;;;;;5.27;2.20;;;;;18.80;101410.00;;;;4999619;28;20233;-74
2022/05/27 09:23:01;;;;;;;7.17;2.23;;;;;19.00;101408.00;;;;5026744;28;20232;-74
2022/05/27 09:26:00;;;;;;;5.63;2.00;;;;;19.00;101412.00;;;;5011234;28;20230;-75
2022/05/27 09:28:57;;;;;;;7.83;1.97;;;;;18.90;101414.00;;;;5002147;28;20233;-74
2022/05/27 09:31:47;;;;;;;4.77;2.00;;;;;18.80;101414.00;;;;5026630;28;20225;-76
2022/05/27 09:34:38;;;;;;;4.00;1.80;;;;;19.00;101407.00;;;;5018651;28;20696;-74
2022/05/27 09:37:28;;;;;;;5.80;2.37;;;;;18.90;101414.00;;;;5010142;28;20237;-75
2022/05/27 09:40:18;;;;;;;5.90;2.23;;;;;19.10;101432.00;;;;5019922;28;20273;-75
2022/05/27 09:43:10;;;;;;;5.77;2.47;;;;;19.00;101425.00;;;;5017341;28;20230;-74
2022/05/27 09:45:58;;;;;;;4.90;1.83;;;;;18.90;101435.00;;;;5017633;28;20327;-74
2022/05/27 09:48:45;;;;;;;4.93;2.10;;;;;19.00;101419.00;;;;5016901;28;20817;-73
2022/05/27 09:51:33;;;;;;;3.63;2.00;;;;;19.20;101422.00;;;;5016779;28;20226;-74
2022/05/27 09:54:36;;;;;;;4.63;1.60;;;;;19.50;101410.00;;;;5022717;28;20229;-75
2022/05/27 09:57:32;;;;;;;8.67;1.83;;;;;19.20;101391.00;;;;5009402;28;20238;-75
2022/05/27 10:00:34;;;;;;;5.40;2.00;;;;;19.40;101406.00;;;;5007642;28;20273;-75
2022/05/27 10:03:33;;;;;;;4.27;1.87;;;;;19.80;101414.00;;;;5021886;28;20608;-74
2022/05/27 10:06:20;;;;;;;3.97;1.60;;;;;20.10;101406.00;;;;5002386;28;20241;-74
2022/05/27 10:09:09;;;;;;;3.90;1.70;;;;;20.60;101401.00;;;;5006990;28;20245;-72
2022/05/27 10:11:56;;;;;;;4.30;1.90;;;;;20.20;101410.00;;;;5024805;28;20750;-74
2022/05/27 10:14:51;;;;;;;6.43;2.30;;;;;20.50;101402.00;;;;5017987;28;20370;-72
2022/05/27 10:17:38;;;;;;;4.60;2.17;;;;;20.90;101400.00;;;;5015425;28;20300;-73
2022/05/27 10:20:31;;;;;;;5.37;1.90;;;;;21.20;101408.00;;;;5015871;28;20232;-73
2022/05/27 10:23:26;;;;;;;5.57;2.00;;;;;21.20;101407.00;;;;5013404;28;20308;-72
2022/05/27 10:26:24;;;;;;;5.17;1.53;;;;;20.70;101413.00;;;;5018131;28;20234;-75
2022/05/27 10:29:13;;;;;;;6.20;1.60;;;;;20.00;101418.00;;;;5017884;28;21021;-74
2022/05/27 10:32:01;;;;;;;5.40;1.80;;;;;19.70;101411.00;;;;5027030;28;20719;-75
2022/05/27 10:34:47;;;;;;;3.97;1.60;;;;;19.80;101408.00;;;;5025929;28;20237;-73
2022/05/27 10:37:48;;;;;;;5.63;1.73;;;;;20.30;101401.00;;;;5026427;28;20591;-74
2022/05/27 10:40:37;;;;;;;4.43;1.70;;;;;19.90;101410.00;;;;5022540;28;20308;-74
2022/05/27 10:43:37;;;;;;;2.43;1.60;;;;;20.40;101401.00;;;;5014041;28;20226;-74
2022/05/27 10:46:30;;;;;;;3.87;1.60;;;;;20.90;101426.00;;;;5020626;28;20240;-74
2022/05/27 10:49:50;;;;;;;5.87;1.97;;;;;21.10;101407.00;;;;5019430;28;20236;-73
2022/05/27 10:52:57;;;;;;;3.20;1.40;;;;;21.30;101409.00;;;;5005544;28;20230;-73
2022/05/27 10:55:53;;;;;;;5.23;1.80;;;;;21.80;101419.00;;;;4994854;28;20275;-72
2022/05/27 11:02:19;;;;;;;5.13;1.60;;;;;21.40;101432.00;;;;5015989;28;20226;-74
2022/05/27 11:05:37;;;;;;;3.80;1.67;;;;;20.80;101440.00;;;;4997924;28;20257;-74
2022/05/27 11:08:25;;;;;;;5.27;1.77;;;;;20.60;101434.00;;;;5004084;28;20235;-72
2022/05/27 11:11:21;;;;;;;7.43;1.83;;;;;20.00;101434.00;;;;4993338;28;20237;-74
2022/05/27 11:17:27;;;;;;;4.37;1.50;;;;;20.40;101420.00;;;;4998637;28;20243;-73
2022/05/27 11:20:33;;;;;;;3.33;1.73;;;;;20.80;101427.00;;;;5003852;28;20273;-74
2022/05/27 11:23:37;;;;;;;5.13;1.90;;;;;21.10;101422.00;;;;4990977;28;20319;-75
2022/05/27 11:26:30;;;;;;;7.03;1.60;;;;;21.60;101432.00;;;;4990562;28;20230;-75
2022/05/27 11:29:33;;;;;;;3.17;1.70;;;;;22.20;101422.00;;;;4998746;28;20242;-76
2022/05/27 11:32:31;;;;;;;3.13;1.37;;;;;22.30;101417.00;;;;5003258;28;20620;-73
2022/05/27 11:35:28;;;;;;;4.17;1.63;;;;;22.00;101433.00;;;;5000934;28;20307;-71
2022/05/27 11:38:34;;;;;;;16.20;2.10;;;;;21.30;101423.00;;;;5021495;28;20872;-73
2022/05/27 11:41:27;;;;;;;2.63;1.80;;;;;20.80;101441.00;;;;5017194;28;20309;-74
2022/05/27 11:44:25;;;;;;;6.47;2.07;;;;;20.50;101450.00;;;;5011265;28;20744;-73
2022/05/27 11:47:34;;;;;;;4.70;1.73;;;;;20.10;101443.00;;;;5001208;28;20243;-73
2022/05/27 11:50:42;;;;;;;4.20;1.80;;;;;20.40;101429.00;;;;4999232;28;20789;-75
2022/05/27 11:53:46;;;;;;;5.70;1.50;;;;;20.70;101429.00;;;;4998848;28;20238;-74
2022/05/27 11:56:43;;;;;;;3.10;1.57;;;;;21.00;101437.00;;;;5002248;28;20241;-74
2022/05/27 11:59:33;;;;;;;5.47;2.13;;;;;21.40;101417.00;;;;4999326;28;20237;-74
2022/05/27 12:02:31;;;;;;;5.63;1.90;;;;;21.70;101408.00;;;;5000019;28;20227;-74
2022/05/27 12:05:20;;;;;;;4.67;1.43;;;;;21.20;101430.00;;;;4999404;28;20370;-72
2022/05/27 12:08:14;;;;;;;4.60;1.83;;;;;20.90;101434.00;;;;5021190;28;20296;-72
2022/05/27 12:11:07;;;;;;;4.47;1.83;;;;;21.10;101435.00;;;;4999156;28;20626;-73
2022/05/27 12:14:00;;;;;;;5.00;1.87;;;;;20.80;101428.00;;;;5011467;28;20686;-73
2022/05/27 12:16:49;;;;;;;4.63;1.70;;;;;20.80;101441.00;;;;5016967;28;20234;-73
2022/05/27 12:19:46;;;;;;;5.63;1.70;;;;;21.40;101437.00;;;;5018886;28;20230;-71
2022/05/27 12:22:35;;;;;;;5.00;1.57;;;;;21.80;101448.00;;;;5024446;28;21041;-74
2022/05/27 12:25:25;;;;;;;4.30;1.60;;;;;21.90;101456.00;;;;5026932;28;20235;-75
2022/05/27 12:28:15;;;;;;;2.80;1.67;;;;;22.00;101433.00;;;;5019439;28;20241;-75
2022/05/27 12:31:03;;;;;;;4.93;2.40;;;;;22.10;101433.00;;;;5023279;28;20230;-74
2022/05/27 12:33:49;;;;;;;5.07;2.07;;;;;22.40;101433.00;;;;5024244;28;20230;-74
2022/05/27 12:36:36;;;;;;;9.87;1.80;;;;;22.40;101437.00;;;;5018083;28;20238;-75
2022/05/27 12:39:25;;;;;;;13.37;1.90;;;;;22.50;101458.00;;;;5020609;28;20239;-72
2022/05/27 12:42:14;;;;;;;5.60;1.50;;;;;22.40;101462.00;;;;5021093;28;20601;-73
2022/05/27 12:45:22;;;;;;;4.03;1.60;;;;;22.40;101449.00;;;;5025164;28;20611;-71
2022/05/27 12:48:09;;;;;;;5.77;1.60;;;;;22.70;101455.00;;;;5022128;28;20255;-72
2022/05/27 12:50:57;;;;;;;4.97;1.70;;;;;22.60;101453.00;;;;5019307;28;20244;-71
2022/05/27 12:53:46;;;;;;;3.80;1.40;;;;;23.00;101454.00;;;;5026279;28;20920;-73
2022/05/27 13:03:00;;;;;;;8.27;1.53;;;;;23.00;101440.00;;;;5016086;28;20358;-73
2022/05/27 13:06:05;;;;;;;6.93;1.67;;;;;23.30;101439.00;;;;5022323;28;20253;-73
2022/05/27 13:09:01;;;;;;;3.30;1.60;;;;;23.50;101434.00;;;;5006724;28;20594;-71
2022/05/27 13:11:47;;;;;;;5.23;1.50;;;;;23.70;101432.00;;;;5011060;28;20237;-75
2022/05/27 13:14:42;;;;;;;4.40;1.90;;;;;23.90;101448.00;;;;5008593;28;20724;-70
2022/05/27 13:17:34;;;;;;;4.37;1.50;;;;;23.80;101455.00;;;;5017440;28;20240;-71
2022/05/27 13:20:24;;;;;;;4.40;1.63;;;;;23.80;101447.00;;;;5020805;28;20233;-71
2022/05/27 13:23:14;;;;;;;7.30;1.50;;;;;24.00;101454.00;;;;5020778;28;20229;-71
2022/05/27 13:26:06;;;;;;;3.80;1.47;;;;;24.10;101441.00;;;;5015842;28;20365;-73
2022/05/27 13:28:56;;;;;;;5.90;1.40;;;;;23.30;101454.00;;;;5014161;28;20819;-71
2022/05/27 13:31:51;;;;;;;4.33;1.50;;;;;23.10;101451.00;;;;5018574;28;20287;-73
2022/05/27 13:34:43;;;;;;;7.47;1.67;;;;;22.20;101469.00;;;;5018696;28;20292;-71
2022/05/27 13:37:42;;;;;;;4.60;1.70;;;;;21.90;101445.00;;;;5018602;28;20233;-71
2022/05/27 13:40:31;;;;;;;3.63;1.10;;;;;22.10;101458.00;;;;5011370;28;20761;-71
2022/05/27 13:43:20;;;;;;;6.70;1.80;;;;;22.10;101465.00;;;;5024616;28;20730;-73
2022/05/27 13:46:15;;;;;;;4.90;1.40;;;;;21.50;101463.00;;;;5021826;28;20352;-72
2022/05/27 13:49:09;;;;;;;3.27;1.40;;;;;22.10;101455.00;;;;5020037;28;20381;-72
2022/05/27 13:51:56;;;;;;;3.50;1.60;;;;;21.90;101461.00;;;;5016158;28;20322;-72
2022/05/27 13:54:44;;;;;;;6.77;1.80;;;;;21.80;101468.00;;;;5017821;28;20222;-72
2022/05/27 13:57:32;;;;;;;3.17;1.40;;;;;22.40;101459.00;;;;5021982;28;20248;-72
2022/05/27 14:00:21;;;;;;;5.57;1.40;;;;;23.10;101462.00;;;;5021514;28;20228;-73
2022/05/27 14:03:08;;;;;;;4.33;1.50;;;;;23.80;101459.00;;;;5018407;28;20284;-73
2022/05/27 14:06:00;;;;;;;6.53;1.57;;;;;24.50;101459.00;;;;5022623;28;20221;-73
2022/05/27 14:08:47;;;;;;;6.50;1.70;;;;;24.60;101468.00;;;;5022119;28;20241;-72
2022/05/27 14:11:35;;;;;;;3.97;1.80;;;;;25.00;101466.00;;;;5019641;28;20276;-72
2022/05/27 14:14:24;;;;;;;3.25;1.60;;;;;25.10;101479.00;;;;5019071;28;20232;-74
2022/05/27 14:17:13;;;;;;;2.50;1.20;;;;;24.80;101454.00;;;;5019213;28;20308;-73
2022/05/27 14:20:01;;;;;;;4.30;1.35;;;;;25.90;101464.00;;;;5012557;28;20276;-73
2022/05/27 14:22:49;;;;;;;6.20;1.50;;;;;26.60;101470.00;;;;5022805;28;20260;-71
2022/05/27 14:25:41;;;;;;;6.28;1.63;;;;;27.70;101468.00;;;;5021063;28;20237;-74
2022/05/27 14:28:35;;;;;;;6.63;1.70;;;;;28.30;101464.00;;;;5020014;28;20237;-73
2022/05/27 14:31:25;;;;;;;4.22;1.63;;;;;29.50;101473.00;;;;5026445;28;20237;-73
2022/05/27 14:34:13;;;;;;;3.33;1.48;;;;;27.30;101473.00;;;;5025713;28;20233;-74
2022/05/27 14:37:09;;;;;;;3.92;1.60;;;;;24.80;101478.00;;;;5024027;28;20237;-73
2022/05/27 14:40:01;;;;;;;6.53;1.35;;;;;25.40;101479.00;;;;5017551;28;20357;-73